createdAt,value
2022-12-31T00:00:29.039Z,19.40
2022-12-31T00:03:04.050Z,22.60
2022-12-31T00:05:39.609Z,22.53
2022-12-31T00:08:14.090Z,19.20
2022-12-31T00:10:48.323Z,20.37
2022-12-31T00:13:22.838Z,21.50
2022-12-31T00:15:56.990Z,24.63
2022-12-31T00:18:31.518Z,21.07
2022-12-31T00:21:08.681Z,17.73
2022-12-31T00:23:43.582Z,16.73
2022-12-31T00:26:19.475Z,25.97
2022-12-31T00:28:55.974Z,25.03
2022-12-31T00:31:31.994Z,22.80
2022-12-31T00:34:07.465Z,24.13
2022-12-31T00:36:43.287Z,17.03
2022-12-31T00:39:18.236Z,19.63
2022-12-31T00:41:52.366Z,17.87
2022-12-31T00:44:26.771Z,16.97
2022-12-31T00:47:00.949Z,16.10
2022-12-31T00:49:35.554Z,13.57
2022-12-31T00:52:13.848Z,19.93
2022-12-31T00:54:48.249Z,17.10
2022-12-31T00:57:22.357Z,18.80
2022-12-31T00:59:56.885Z,20.20
2022-12-31T01:02:31.241Z,19.33
2022-12-31T01:05:08.275Z,20.37
2022-12-31T01:07:43.742Z,18.60
2022-12-31T01:10:38.719Z,25.20
2022-12-31T01:13:12.860Z,14.97
2022-12-31T01:15:47.793Z,25.33
2022-12-31T01:18:21.981Z,20.27
2022-12-31T01:20:56.395Z,14.97
2022-12-31T01:23:32.302Z,11.90
2022-12-31T01:26:08.724Z,27.10
2022-12-31T01:28:43.130Z,23.37
2022-12-31T01:31:20.305Z,21.43
2022-12-31T01:33:54.728Z,16.60
2022-12-31T01:36:31.696Z,14.93
2022-12-31T01:39:10.598Z,17.67
2022-12-31T01:41:47.108Z,20.93
2022-12-31T01:44:51.123Z,13.97
2022-12-31T01:47:37.181Z,17.73
2022-12-31T01:50:17.282Z,18.07
2022-12-31T01:52:56.080Z,13.90
2022-12-31T01:55:34.906Z,16.10
2022-12-31T01:58:13.239Z,13.53
2022-12-31T02:00:48.802Z,14.70
2022-12-31T02:03:25.227Z,14.73
2022-12-31T02:06:06.155Z,17.20
2022-12-31T02:08:42.309Z,17.17
2022-12-31T02:11:27.996Z,15.73
2022-12-31T02:14:07.017Z,18.00
2022-12-31T02:16:48.045Z,23.63
2022-12-31T02:19:57.095Z,17.87
2022-12-31T02:22:56.357Z,22.47
2022-12-31T02:25:52.078Z,16.63
2022-12-31T02:28:50.204Z,18.33
2022-12-31T02:31:33.001Z,17.77
2022-12-31T02:34:12.957Z,20.53
2022-12-31T02:36:51.367Z,16.98
2022-12-31T02:39:26.019Z,16.90
2022-12-31T02:42:01.711Z,16.03
2022-12-31T02:44:37.516Z,13.83
2022-12-31T02:47:23.151Z,30.57
2022-12-31T02:50:12.008Z,18.87
2022-12-31T02:52:56.648Z,14.63
2022-12-31T02:55:38.255Z,16.13
2022-12-31T02:58:43.910Z,15.63
2022-12-31T03:01:43.797Z,15.20
2022-12-31T03:04:33.541Z,14.60
2022-12-31T03:07:10.246Z,33.10
2022-12-31T03:09:45.286Z,26.37
2022-12-31T03:12:39.026Z,26.73
2022-12-31T03:15:21.831Z,19.63
2022-12-31T03:17:59.728Z,17.43
2022-12-31T03:20:55.406Z,24.93
2022-12-31T03:23:32.403Z,27.07
2022-12-31T03:26:09.964Z,16.30
2022-12-31T03:28:48.074Z,20.53
2022-12-31T03:31:22.656Z,18.97
2022-12-31T03:33:57.088Z,17.87
2022-12-31T03:36:32.875Z,15.47
2022-12-31T03:39:07.333Z,13.50
2022-12-31T03:41:41.742Z,15.57
2022-12-31T03:44:15.817Z,20.50
2022-12-31T03:46:50.344Z,19.37
2022-12-31T03:49:24.608Z,14.53
2022-12-31T03:52:03.147Z,14.33
2022-12-31T03:54:37.281Z,23.93
2022-12-31T03:57:11.685Z,12.63
2022-12-31T03:59:45.926Z,17.73
2022-12-31T04:02:26.349Z,15.13
2022-12-31T04:05:03.220Z,14.43
2022-12-31T04:07:39.005Z,16.93
2022-12-31T04:10:15.633Z,18.63
2022-12-31T04:12:49.899Z,15.67
2022-12-31T04:15:24.320Z,18.83
2022-12-31T04:18:03.343Z,24.97
2022-12-31T04:20:38.007Z,17.07
2022-12-31T04:23:13.578Z,16.03
2022-12-31T04:25:48.101Z,19.83
2022-12-31T04:28:22.274Z,18.03
2022-12-31T04:30:56.802Z,17.93
2022-12-31T04:33:31.044Z,17.33
2022-12-31T04:36:07.229Z,18.80
2022-12-31T04:38:43.353Z,18.43
2022-12-31T04:41:21.041Z,14.00
2022-12-31T04:43:57.057Z,26.63
2022-12-31T04:46:34.185Z,17.60
2022-12-31T04:49:08.345Z,32.57
2022-12-31T04:51:42.845Z,17.70
2022-12-31T04:54:19.533Z,24.90
2022-12-31T04:56:53.929Z,20.93
2022-12-31T04:59:28.269Z,21.17
2022-12-31T05:02:03.227Z,38.90
2022-12-31T05:04:37.499Z,24.77
2022-12-31T05:07:11.886Z,37.63
2022-12-31T05:09:48.686Z,24.90
2022-12-31T05:12:23.142Z,28.00
2022-12-31T05:14:57.285Z,21.20
2022-12-31T05:17:31.801Z,17.40
2022-12-31T05:20:07.801Z,27.07
2022-12-31T05:22:42.700Z,23.07
2022-12-31T05:25:18.599Z,19.60
2022-12-31T05:27:53.525Z,17.00
2022-12-31T05:30:27.806Z,21.63
2022-12-31T05:33:02.436Z,28.80
2022-12-31T05:35:36.848Z,29.73
2022-12-31T05:38:11.216Z,25.17
2022-12-31T05:40:46.818Z,29.40
2022-12-31T05:43:21.197Z,25.07
2022-12-31T05:45:55.314Z,25.73
2022-12-31T05:48:31.008Z,29.67
2022-12-31T05:51:05.776Z,28.80
2022-12-31T05:53:40.159Z,32.03
2022-12-31T05:56:16.631Z,22.40
2022-12-31T05:58:51.182Z,23.93
2022-12-31T06:01:25.548Z,25.93
2022-12-31T06:04:00.077Z,31.97
2022-12-31T06:06:34.344Z,25.73
2022-12-31T06:09:09.024Z,31.07
2022-12-31T06:11:44.916Z,30.23
2022-12-31T06:14:19.373Z,31.37
2022-12-31T06:16:53.560Z,26.93
2022-12-31T06:19:28.096Z,23.50
2022-12-31T06:22:02.315Z,22.73
2022-12-31T06:24:36.705Z,30.27
2022-12-31T06:27:12.542Z,31.43
2022-12-31T06:29:48.169Z,31.00
2022-12-31T06:32:22.583Z,29.17
2022-12-31T06:34:57.027Z,40.77
2022-12-31T06:37:31.236Z,39.53
2022-12-31T06:40:08.801Z,38.27
2022-12-31T06:42:44.320Z,30.70
2022-12-31T06:45:19.001Z,38.43
2022-12-31T06:47:53.685Z,34.03
2022-12-31T06:50:28.254Z,39.80
2022-12-31T06:53:03.044Z,35.60
2022-12-31T06:55:38.093Z,39.20
2022-12-31T06:58:16.013Z,38.17
2022-12-31T07:03:20.086Z,29.77
2022-12-31T07:06:02.837Z,35.20
2022-12-31T07:08:48.320Z,40.07
2022-12-31T07:11:25.217Z,30.00
2022-12-31T07:14:15.132Z,37.27
2022-12-31T07:17:00.374Z,36.63
2022-12-31T07:19:45.488Z,43.33
2022-12-31T07:22:20.756Z,32.57
2022-12-31T07:24:55.460Z,36.53
2022-12-31T07:27:56.080Z,30.07
2022-12-31T07:30:41.369Z,33.58
2022-12-31T07:33:31.411Z,33.43
2022-12-31T07:36:20.639Z,45.60
2022-12-31T07:39:01.956Z,36.57
2022-12-31T07:41:50.869Z,134.63
2022-12-31T07:44:44.185Z,16.60
2022-12-31T07:47:23.593Z,39.17
2022-12-31T07:49:59.034Z,60.92
2022-12-31T07:52:35.399Z,50.67
2022-12-31T07:55:10.948Z,38.57
2022-12-31T07:57:53.654Z,38.73
2022-12-31T08:00:30.748Z,29.47
2022-12-31T08:03:22.561Z,39.13
2022-12-31T08:06:09.193Z,37.03
2022-12-31T08:08:54.023Z,39.87
2022-12-31T08:11:37.016Z,36.17
2022-12-31T08:14:13.238Z,35.87
2022-12-31T08:16:47.819Z,31.43
2022-12-31T08:19:26.732Z,30.33
2022-12-31T08:22:33.255Z,31.20
2022-12-31T08:25:22.858Z,90.13
2022-12-31T08:28:04.714Z,28.77
2022-12-31T08:30:49.301Z,37.43
2022-12-31T08:33:30.381Z,38.90
2022-12-31T08:36:19.208Z,32.73
2022-12-31T08:39:00.782Z,22.93
2022-12-31T08:41:43.342Z,23.17
2022-12-31T08:44:28.564Z,25.13
2022-12-31T08:47:14.740Z,25.80
2022-12-31T08:49:50.526Z,20.60
2022-12-31T08:52:27.105Z,25.53
2022-12-31T08:55:02.812Z,43.63
2022-12-31T08:57:47.401Z,40.43
2022-12-31T09:00:22.659Z,124.23
2022-12-31T09:03:13.240Z,71.53
2022-12-31T09:05:58.362Z,33.45
2022-12-31T09:08:45.371Z,27.17
2022-12-31T09:11:24.632Z,27.23
2022-12-31T09:14:17.031Z,24.17
2022-12-31T09:17:01.770Z,23.23
2022-12-31T09:19:36.287Z,20.83
2022-12-31T09:22:11.734Z,19.50
2022-12-31T09:24:46.903Z,19.33
2022-12-31T09:27:28.011Z,28.20
2022-12-31T09:30:07.685Z,18.13
2022-12-31T09:32:56.881Z,16.80
2022-12-31T09:35:40.177Z,19.67
2022-12-31T09:38:22.275Z,18.20
2022-12-31T09:41:16.223Z,20.67
2022-12-31T09:44:36.512Z,22.43
2022-12-31T09:47:58.757Z,16.67
2022-12-31T09:50:51.272Z,18.43
2022-12-31T09:53:40.512Z,18.70
2022-12-31T09:56:22.557Z,19.40
2022-12-31T09:59:04.192Z,17.70
2022-12-31T10:01:51.081Z,18.77
2022-12-31T10:05:01.438Z,18.90
2022-12-31T10:07:52.787Z,20.70
2022-12-31T10:10:35.591Z,16.50
2022-12-31T10:13:29.709Z,19.33
2022-12-31T10:16:35.141Z,18.70
2022-12-31T10:19:42.612Z,23.20
2022-12-31T10:22:55.623Z,27.50
2022-12-31T10:26:00.875Z,20.27
2022-12-31T10:28:45.627Z,19.83
2022-12-31T10:31:43.851Z,19.97
2022-12-31T10:34:26.851Z,18.87
2022-12-31T10:37:11.908Z,24.80
2022-12-31T10:40:01.915Z,21.70
2022-12-31T10:43:24.718Z,17.00
2022-12-31T10:46:36.263Z,17.43
2022-12-31T10:49:38.276Z,18.17
2022-12-31T10:52:51.978Z,19.90
2022-12-31T10:55:51.712Z,13.70
2022-12-31T10:58:55.076Z,16.87
2022-12-31T11:01:41.862Z,14.67
2022-12-31T11:04:56.964Z,14.50
2022-12-31T11:07:48.371Z,18.60
2022-12-31T11:11:01.335Z,17.20
2022-12-31T11:14:05.619Z,20.13
2022-12-31T11:16:57.123Z,25.83
2022-12-31T11:19:40.776Z,39.27
2022-12-31T11:22:31.601Z,14.87
2022-12-31T11:25:24.270Z,16.80
2022-12-31T11:28:23.973Z,17.63
2022-12-31T11:31:17.186Z,14.73
2022-12-31T11:34:10.940Z,13.93
2022-12-31T11:36:58.176Z,17.00
2022-12-31T11:39:48.378Z,12.93
2022-12-31T11:42:33.669Z,15.82
2022-12-31T11:45:16.404Z,14.13
2022-12-31T11:51:11.569Z,20.00
2022-12-31T11:54:16.239Z,16.83
2022-12-31T11:57:00.563Z,27.57
2022-12-31T11:59:34.739Z,38.33
2022-12-31T12:02:25.118Z,13.13
2022-12-31T12:05:11.556Z,50.33
2022-12-31T12:07:46.018Z,22.87
2022-12-31T12:10:33.535Z,18.23
2022-12-31T12:13:19.932Z,11.20
2022-12-31T12:15:57.119Z,11.47
2022-12-31T12:18:38.185Z,10.90
2022-12-31T12:23:58.609Z,13.43
2022-12-31T12:26:37.862Z,13.40
2022-12-31T12:29:16.564Z,16.90
2022-12-31T12:31:58.531Z,13.03
2022-12-31T12:34:35.863Z,13.70
2022-12-31T12:37:28.604Z,11.90
2022-12-31T12:40:05.967Z,12.97
2022-12-31T12:42:48.573Z,20.37
2022-12-31T12:45:24.714Z,23.13
2022-12-31T12:48:03.662Z,10.77
2022-12-31T12:50:43.551Z,12.73
2022-12-31T12:53:28.535Z,16.48
2022-12-31T12:56:13.797Z,10.27
2022-12-31T12:59:00.325Z,17.27
2022-12-31T13:01:48.753Z,23.87
2022-12-31T13:04:47.662Z,18.10
2022-12-31T13:07:37.676Z,14.70
2022-12-31T13:10:34.440Z,18.13
2022-12-31T13:13:25.392Z,20.90
2022-12-31T13:16:07.806Z,18.43
2022-12-31T13:18:53.324Z,25.23
2022-12-31T13:21:45.437Z,21.10
2022-12-31T13:24:32.597Z,25.43
2022-12-31T13:27:16.033Z,21.40
2022-12-31T13:29:51.423Z,27.93
2022-12-31T13:32:36.091Z,19.47
2022-12-31T13:35:24.097Z,14.37
2022-12-31T13:38:05.830Z,16.53
2022-12-31T13:40:49.639Z,20.60
2022-12-31T13:43:36.257Z,22.77
2022-12-31T13:46:18.277Z,16.27
2022-12-31T13:48:57.563Z,10.03
2022-12-31T13:51:41.666Z,12.17
2022-12-31T13:54:30.130Z,10.03
2022-12-31T13:57:12.843Z,10.13
2022-12-31T13:59:54.089Z,9.90
2022-12-31T14:02:38.391Z,16.23
2022-12-31T14:05:20.976Z,19.03
2022-12-31T14:07:57.730Z,13.93
2022-12-31T14:10:42.750Z,13.87
2022-12-31T14:13:39.782Z,16.30
2022-12-31T14:16:23.447Z,16.13
2022-12-31T14:19:06.189Z,20.13
2022-12-31T14:21:48.818Z,21.07
2022-12-31T14:24:34.659Z,28.87
2022-12-31T14:27:16.004Z,27.43
2022-12-31T14:29:58.081Z,29.27
2022-12-31T14:32:54.538Z,96.50
2022-12-31T14:35:41.566Z,52.43
2022-12-31T14:38:26.596Z,42.60
2022-12-31T14:41:14.570Z,42.23
2022-12-31T14:44:04.012Z,44.93
2022-12-31T14:46:50.841Z,79.00
2022-12-31T14:49:38.173Z,53.37
2022-12-31T14:52:22.694Z,41.63
2022-12-31T14:55:22.992Z,60.67
2022-12-31T15:00:56.275Z,34.23
2022-12-31T15:04:43.349Z,59.33
2022-12-31T15:07:26.246Z,61.17
2022-12-31T15:10:20.190Z,153.80
2022-12-31T15:13:06.515Z,122.73
2022-12-31T15:15:57.402Z,118.47
2022-12-31T15:18:50.281Z,71.63
2022-12-31T15:21:46.337Z,70.00
2022-12-31T15:24:22.492Z,229.60
2022-12-31T15:26:59.701Z,211.57
2022-12-31T15:29:37.833Z,286.43
2022-12-31T15:32:20.180Z,378.00
2022-12-31T15:35:02.859Z,205.37
2022-12-31T15:37:38.557Z,313.53
2022-12-31T15:40:21.462Z,96.77
2022-12-31T15:42:59.789Z,81.77
2022-12-31T15:45:38.628Z,54.73
2022-12-31T15:48:19.172Z,30.17
2022-12-31T15:50:58.255Z,30.57
2022-12-31T15:53:37.260Z,29.83
2022-12-31T15:56:20.359Z,27.37
2022-12-31T15:58:59.706Z,18.10
2022-12-31T16:01:37.465Z,15.10
2022-12-31T16:04:18.445Z,11.87
2022-12-31T16:06:53.927Z,13.55
2022-12-31T16:09:34.293Z,13.97
2022-12-31T16:12:13.287Z,17.90
2022-12-31T16:14:53.095Z,16.33
2022-12-31T16:17:30.127Z,20.73
2022-12-31T16:20:24.177Z,13.97
2022-12-31T16:23:02.127Z,19.50
2022-12-31T16:25:38.184Z,13.47
2022-12-31T16:28:20.067Z,15.63
2022-12-31T16:31:01.508Z,119.90
2022-12-31T16:33:35.808Z,14.37
2022-12-31T16:36:21.858Z,39.03
2022-12-31T16:39:23.396Z,63.67
2022-12-31T16:42:18.058Z,46.23
2022-12-31T16:44:54.436Z,17.90
2022-12-31T16:47:34.402Z,8.67
2022-12-31T16:50:16.925Z,7.18
2022-12-31T16:52:58.925Z,11.77
2022-12-31T16:55:34.462Z,9.83
2022-12-31T16:58:19.254Z,9.33
2022-12-31T17:00:54.514Z,19.80
2022-12-31T17:03:30.200Z,18.87
2022-12-31T17:06:16.703Z,13.07
2022-12-31T17:09:04.872Z,10.80
2022-12-31T17:11:45.572Z,7.00
2022-12-31T17:14:24.264Z,4.80
2022-12-31T17:17:03.669Z,4.70
2022-12-31T17:19:41.823Z,3.85
2022-12-31T17:22:31.646Z,6.27
2022-12-31T17:25:21.745Z,7.67
2022-12-31T17:28:00.357Z,9.47
2022-12-31T17:30:42.841Z,6.37
2022-12-31T17:33:31.199Z,9.63
2022-12-31T17:36:22.077Z,6.20
2022-12-31T17:41:30.580Z,3.03
2022-12-31T17:44:05.771Z,5.43
2022-12-31T17:46:43.372Z,6.87
2022-12-31T17:49:18.133Z,5.20
2022-12-31T17:51:52.525Z,3.70
2022-12-31T17:54:26.683Z,7.87
2022-12-31T17:57:01.138Z,8.00
2022-12-31T17:59:36.536Z,4.67
2022-12-31T18:02:17.647Z,3.87
2022-12-31T18:04:53.179Z,100.00
2022-12-31T18:07:27.442Z,7.10
2022-12-31T18:10:01.978Z,3.90
2022-12-31T18:12:37.523Z,4.27
2022-12-31T18:15:16.580Z,3.80
2022-12-31T18:17:52.741Z,4.27
2022-12-31T18:20:28.417Z,4.07
2022-12-31T18:23:02.526Z,3.57
2022-12-31T18:28:13.047Z,4.40
2022-12-31T18:30:48.598Z,6.90
2022-12-31T18:33:25.293Z,4.60
2022-12-31T18:36:15.008Z,4.10
2022-12-31T18:38:49.331Z,4.23
2022-12-31T18:41:27.029Z,4.27
2022-12-31T18:44:01.317Z,3.30
2022-12-31T18:46:35.811Z,3.10
2022-12-31T18:49:11.822Z,2.97
2022-12-31T18:51:46.243Z,34.33
2022-12-31T18:54:20.698Z,25.47
2022-12-31T18:56:57.174Z,17.83
2022-12-31T18:59:31.698Z,7.83
2022-12-31T19:02:06.777Z,5.87
2022-12-31T19:04:42.331Z,10.03
2022-12-31T19:07:16.797Z,10.93
2022-12-31T19:09:56.413Z,7.13
2022-12-31T19:12:32.838Z,4.03
2022-12-31T19:15:21.599Z,3.80
2022-12-31T19:17:56.226Z,5.77
2022-12-31T19:20:32.474Z,5.33
2022-12-31T19:23:07.191Z,7.60
2022-12-31T19:25:41.389Z,7.80
2022-12-31T19:28:18.646Z,9.93
2022-12-31T19:30:53.056Z,6.03
2022-12-31T19:33:27.825Z,4.73
2022-12-31T19:36:03.611Z,5.83
2022-12-31T19:38:38.101Z,9.70
2022-12-31T19:41:17.295Z,8.83
2022-12-31T19:43:52.031Z,4.60
2022-12-31T19:46:27.794Z,4.70
2022-12-31T19:49:02.293Z,6.67
2022-12-31T19:51:37.871Z,6.03
2022-12-31T19:54:14.223Z,5.30
2022-12-31T19:56:48.467Z,4.10
2022-12-31T19:59:22.939Z,4.23
2022-12-31T20:01:57.349Z,6.37
2022-12-31T20:04:31.877Z,3.57
2022-12-31T20:07:07.597Z,3.77
2022-12-31T20:09:42.100Z,5.07
2022-12-31T20:12:16.290Z,4.40
2022-12-31T20:14:51.033Z,3.80
2022-12-31T20:17:25.699Z,3.47
2022-12-31T20:20:00.200Z,4.40
2022-12-31T20:22:35.908Z,9.27
2022-12-31T20:25:10.825Z,46.30
2022-12-31T20:27:45.205Z,6.20
2022-12-31T20:30:21.037Z,3.00
2022-12-31T20:32:55.714Z,2.60
2022-12-31T20:35:30.156Z,3.30
2022-12-31T20:38:06.174Z,2.97
2022-12-31T20:40:46.315Z,2.60
2022-12-31T20:43:21.592Z,2.97
2022-12-31T20:45:56.135Z,3.07
2022-12-31T20:48:32.704Z,3.23
2022-12-31T20:51:07.815Z,3.00
2022-12-31T20:53:47.601Z,2.33
2022-12-31T20:56:22.485Z,2.90
2022-12-31T20:58:56.614Z,4.07
2022-12-31T21:01:55.162Z,4.40
2022-12-31T21:04:25.863Z,3.33
2022-12-31T21:07:00.502Z,3.93
2022-12-31T21:09:36.301Z,3.57
2022-12-31T21:12:29.605Z,3.83
2022-12-31T21:15:03.730Z,6.40
2022-12-31T21:17:38.237Z,4.03
2022-12-31T21:20:13.655Z,5.20
2022-12-31T21:22:48.304Z,12.97
2022-12-31T21:25:23.926Z,3.27
2022-12-31T21:27:58.447Z,9.13
2022-12-31T21:30:32.798Z,3.50
2022-12-31T21:33:07.578Z,4.57
2022-12-31T21:35:48.324Z,4.97
2022-12-31T21:38:28.536Z,5.13
2022-12-31T21:41:05.424Z,11.37
2022-12-31T21:43:40.038Z,6.97
2022-12-31T21:46:14.253Z,3.83
2022-12-31T21:48:48.710Z,3.70
2022-12-31T21:51:23.726Z,4.47
2022-12-31T21:53:59.540Z,3.27
2022-12-31T21:56:34.039Z,2.87
2022-12-31T21:59:26.289Z,9.90
2022-12-31T22:02:18.567Z,12.53
2022-12-31T22:05:02.328Z,2.80
2022-12-31T22:07:37.246Z,2.77
2022-12-31T22:10:12.027Z,3.00
2022-12-31T22:12:47.991Z,2.53
2022-12-31T22:15:22.628Z,2.70
2022-12-31T22:17:56.777Z,2.40
2022-12-31T22:20:31.262Z,3.33
2022-12-31T22:23:05.994Z,5.90
2022-12-31T22:25:40.658Z,2.43
2022-12-31T22:31:15.489Z,5.50
2022-12-31T22:33:49.860Z,4.50
2022-12-31T22:36:25.253Z,2.80
2022-12-31T22:38:59.755Z,2.20
2022-12-31T22:41:35.456Z,3.53
2022-12-31T22:44:10.971Z,2.50
2022-12-31T22:46:45.977Z,2.33
2022-12-31T22:49:20.778Z,2.33
2022-12-31T22:51:59.713Z,2.20
2022-12-31T22:54:35.899Z,2.97
2022-12-31T22:57:13.382Z,2.30
2022-12-31T22:59:53.689Z,2.30
2022-12-31T23:03:04.822Z,1.87
2022-12-31T23:05:39.636Z,101.70
2022-12-31T23:08:22.348Z,4.20
2022-12-31T23:11:05.825Z,17.27
2022-12-31T23:14:00.126Z,2.57
2022-12-31T23:16:51.948Z,1.70
2022-12-31T23:19:45.365Z,2.27
2022-12-31T23:22:37.833Z,2.00
2022-12-31T23:25:12.065Z,2.07
2022-12-31T23:27:46.990Z,1.90
2022-12-31T23:30:21.486Z,2.57
2022-12-31T23:32:56.083Z,3.53
2022-12-31T23:35:31.809Z,2.00
2022-12-31T23:38:06.525Z,6.57
2022-12-31T23:40:40.813Z,1.80
2022-12-31T23:43:21.246Z,1.93
2022-12-31T23:45:55.586Z,1.65
2022-12-31T23:48:29.993Z,1.90
2022-12-31T23:51:06.563Z,2.00
2022-12-31T23:53:41.089Z,2.50
2022-12-31T23:56:23.267Z,1.97
2022-12-31T23:58:58.885Z,2.00
